Time;durP1;ratioP1;P1;durP2;ratioP2;P2;SDS_P1;SDS_P2;PMS_P1;PMS_P2;Temp;Humidity;BMP_temperature;BMP_pressure;BME280_temperature;BME280_humidity;BME280_pressure;Samples;Min_cycle;Max_cycle;Signal;HPM_P1;HPM_P2
2022/10/07 00:01:52;;;;;;;9.43;3.90;;;12.20;99.90;;;;;;5091558;28;20028;-68
2022/10/07 00:04:18;;;;;;;7.15;3.80;;;12.20;99.90;;;;;;5091957;28;20016;-69
2022/10/07 00:06:44;;;;;;;4.68;3.10;;;12.20;99.90;;;;;;5090738;28;20073;-70
2022/10/07 00:09:10;;;;;;;7.80;3.92;;;12.20;99.90;;;;;;5091679;28;20097;-69
2022/10/07 00:11:36;;;;;;;10.00;3.55;;;12.20;99.90;;;;;;5090482;28;20107;-69
2022/10/07 00:14:06;;;;;;;11.10;4.22;;;12.20;99.90;;;;;;5091446;28;20030;-70
2022/10/07 00:16:41;;;;;;;14.63;4.10;;;12.20;99.90;;;;;;5090582;28;20064;-69
2022/10/07 00:19:10;;;;;;;7.18;4.03;;;12.30;99.90;;;;;;5091021;28;20031;-69
2022/10/07 00:21:38;;;;;;;9.38;4.35;;;12.30;99.90;;;;;;5083040;28;20043;-69
2022/10/07 00:24:05;;;;;;;13.50;4.88;;;12.30;99.90;;;;;;5091273;28;20107;-69
2022/10/07 00:26:33;;;;;;;9.23;4.22;;;12.30;99.90;;;;;;5089719;28;20031;-69
2022/10/07 00:28:59;;;;;;;9.23;5.47;;;12.30;99.90;;;;;;5089464;28;20032;-69
2022/10/07 00:31:27;;;;;;;9.98;4.53;;;12.30;99.90;;;;;;5091589;28;20032;-69
2022/10/07 00:33:54;;;;;;;8.52;5.03;;;12.30;99.90;;;;;;5091303;28;20048;-67
2022/10/07 00:36:25;;;;;;;9.32;4.00;;;12.30;99.90;;;;;;5090519;28;20465;-68
2022/10/07 00:38:56;;;;;;;11.63;5.05;;;12.30;99.90;;;;;;5091433;28;20073;-67
2022/10/07 00:41:25;;;;;;;10.55;4.43;;;12.30;99.90;;;;;;5091170;28;20039;-69
2022/10/07 00:43:51;;;;;;;10.55;4.18;;;12.30;99.90;;;;;;5089985;28;20024;-69
2022/10/07 00:46:49;;;;;;;6.40;3.60;;;12.40;99.90;;;;;;5089011;28;20435;-68
2022/10/07 00:49:15;;;;;;;6.18;3.88;;;12.40;99.90;;;;;;5016469;28;20858;-68
2022/10/07 00:51:42;;;;;;;5.70;4.20;;;12.40;99.90;;;;;;5069459;28;20318;-69
2022/10/07 00:54:12;;;;;;;8.07;4.03;;;12.40;99.90;;;;;;5051033;28;20024;-68
2022/10/07 00:56:38;;;;;;;9.18;4.22;;;12.40;99.90;;;;;;5071086;28;20031;-69
2022/10/07 00:59:05;;;;;;;12.32;5.07;;;12.40;99.90;;;;;;5070627;28;20040;-68
2022/10/07 01:01:30;;;;;;;12.48;4.57;;;12.40;99.90;;;;;;5059930;28;20032;-69
2022/10/07 01:03:56;;;;;;;9.60;4.53;;;12.40;99.90;;;;;;5062610;28;20020;-67
2022/10/07 01:06:22;;;;;;;8.65;4.10;;;12.40;99.90;;;;;;5070937;28;20036;-68
2022/10/07 01:08:51;;;;;;;12.35;4.82;;;12.40;99.90;;;;;;5071105;28;20413;-70
2022/10/07 01:11:25;;;;;;;9.18;4.68;;;12.50;99.90;;;;;;5070302;28;20488;-69
2022/10/07 01:13:56;;;;;;;6.72;4.13;;;12.50;99.90;;;;;;5064302;28;20055;-69
2022/10/07 01:16:34;;;;;;;11.60;4.45;;;12.50;99.90;;;;;;5070373;28;20482;-69
2022/10/07 01:19:27;;;;;;;9.07;4.60;;;12.50;99.90;;;;;;5067467;28;20039;-68
2022/10/07 01:22:23;;;;;;;10.07;4.68;;;12.50;99.90;;;;;;5063871;28;20029;-68
2022/10/07 01:25:02;;;;;;;7.63;4.63;;;12.50;99.90;;;;;;5069376;28;20046;-68
2022/10/07 01:27:28;;;;;;;12.05;4.78;;;12.50;99.90;;;;;;5070679;28;20029;-69
2022/10/07 01:30:02;;;;;;;7.60;4.00;;;12.50;99.90;;;;;;5070352;28;20056;-68
2022/10/07 01:32:38;;;;;;;10.13;4.22;;;12.50;99.90;;;;;;5071327;28;20025;-68
2022/10/07 01:35:09;;;;;;;9.00;4.13;;;12.50;99.90;;;;;;5066625;28;20055;-67
2022/10/07 01:37:43;;;;;;;10.20;4.75;;;12.50;99.90;;;;;;5071175;28;20029;-69
2022/10/07 01:40:19;;;;;;;8.70;3.72;;;12.50;99.90;;;;;;5073456;28;20042;-69
2022/10/07 01:42:46;;;;;;;13.13;4.43;;;12.50;99.90;;;;;;5075067;28;20025;-69
2022/10/07 01:45:19;;;;;;;10.27;4.13;;;12.50;99.90;;;;;;5072780;28;20108;-69
2022/10/07 01:47:46;;;;;;;7.72;3.60;;;12.50;99.90;;;;;;5074244;28;20124;-69
2022/10/07 01:50:13;;;;;;;8.65;3.92;;;12.50;99.90;;;;;;5071833;28;20040;-69
2022/10/07 01:52:44;;;;;;;6.97;3.60;;;12.50;99.90;;;;;;5067593;28;20033;-69
2022/10/07 01:55:41;;;;;;;8.00;3.20;;;12.50;99.90;;;;;;5073483;28;20103;-68
2022/10/07 01:58:31;;;;;;;5.63;3.63;;;12.50;99.90;;;;;;5073702;28;20025;-70
2022/10/07 02:01:07;;;;;;;4.75;3.28;;;12.50;99.90;;;;;;5070522;28;20056;-68
2022/10/07 02:04:09;;;;;;;8.20;3.35;;;12.50;99.90;;;;;;5064490;28;20025;-69
2022/10/07 02:07:28;;;;;;;7.53;3.72;;;12.50;99.90;;;;;;5073682;28;20028;-69
2022/10/07 02:09:59;;;;;;;8.57;3.70;;;12.50;99.90;;;;;;4961445;28;20047;-68
2022/10/07 02:12:39;;;;;;;6.60;3.58;;;12.50;99.90;;;;;;5068140;28;20039;-68
2022/10/07 02:15:07;;;;;;;11.33;3.63;;;12.50;99.90;;;;;;5072592;28;20036;-68
2022/10/07 02:17:36;;;;;;;11.88;3.92;;;12.50;99.90;;;;;;5074084;28;20024;-68
2022/10/07 02:20:08;;;;;;;6.57;3.75;;;12.50;99.90;;;;;;5072596;28;20028;-69
2022/10/07 02:22:35;;;;;;;6.03;3.13;;;12.50;99.90;;;;;;5072390;28;20074;-69
2022/10/07 02:25:02;;;;;;;9.25;3.72;;;12.50;99.90;;;;;;5071613;28;20030;-68
2022/10/07 02:27:33;;;;;;;6.35;3.33;;;12.40;99.90;;;;;;5073818;28;20036;-68
2022/10/07 02:30:05;;;;;;;6.80;3.95;;;12.50;99.90;;;;;;5071713;28;20037;-68
2022/10/07 02:32:33;;;;;;;11.52;3.25;;;12.50;99.90;;;;;;5074097;28;20040;-69
2022/10/07 02:35:04;;;;;;;11.82;3.65;;;12.40;99.90;;;;;;5072483;28;20056;-68
2022/10/07 02:37:34;;;;;;;6.65;3.58;;;12.50;99.90;;;;;;5073557;28;20069;-69
2022/10/07 02:40:01;;;;;;;8.10;3.50;;;12.50;99.90;;;;;;5069276;28;20035;-68
2022/10/07 02:42:34;;;;;;;7.47;3.58;;;12.50;99.90;;;;;;5073713;28;20493;-70
2022/10/07 02:45:06;;;;;;;14.88;3.80;;;12.50;99.90;;;;;;5072350;28;20496;-68
2022/10/07 02:47:50;;;;;;;7.68;3.55;;;12.50;99.90;;;;;;5075615;28;20016;-68
2022/10/07 02:50:22;;;;;;;10.65;4.32;;;12.40;99.90;;;;;;5083429;28;20032;-68
2022/10/07 02:52:51;;;;;;;9.50;4.05;;;12.40;99.90;;;;;;5088144;28;20035;-67
2022/10/07 02:55:21;;;;;;;12.13;3.95;;;12.50;99.90;;;;;;5091432;28;20024;-67
2022/10/07 02:57:51;;;;;;;7.80;3.70;;;12.40;99.90;;;;;;5070625;28;20085;-70
2022/10/07 03:00:18;;;;;;;8.02;3.45;;;12.40;99.90;;;;;;5091704;28;20031;-69
2022/10/07 03:02:51;;;;;;;8.88;3.63;;;12.40;99.90;;;;;;5093617;28;20028;-69
2022/10/07 03:05:19;;;;;;;7.40;3.47;;;12.40;99.90;;;;;;5092636;28;20019;-69
2022/10/07 03:07:47;;;;;;;8.55;3.67;;;12.40;99.90;;;;;;5092336;28;20024;-69
2022/10/07 03:10:13;;;;;;;9.18;3.70;;;12.40;99.90;;;;;;5092272;28;20028;-69
2022/10/07 03:12:39;;;;;;;9.27;4.07;;;12.40;99.90;;;;;;5091731;28;20024;-69
2022/10/07 03:15:05;;;;;;;6.38;3.63;;;12.40;99.90;;;;;;5092194;28;20032;-69
2022/10/07 03:17:30;;;;;;;7.72;3.28;;;12.30;99.90;;;;;;5092291;28;20058;-68
2022/10/07 03:19:56;;;;;;;6.45;3.45;;;12.30;99.90;;;;;;5092506;28;20441;-67
2022/10/07 03:22:22;;;;;;;12.45;3.47;;;12.30;99.90;;;;;;5092860;28;20078;-69
2022/10/07 03:24:47;;;;;;;10.32;4.03;;;12.30;99.90;;;;;;5092947;28;20023;-70
2022/10/07 03:27:13;;;;;;;10.35;3.70;;;12.40;99.90;;;;;;5090806;28;20621;-68
2022/10/07 03:29:38;;;;;;;10.93;3.90;;;12.30;99.90;;;;;;5091209;28;20060;-69
2022/10/07 03:32:04;;;;;;;5.88;3.53;;;12.40;99.90;;;;;;5091134;28;20024;-70
2022/10/07 03:34:31;;;;;;;7.93;3.55;;;12.30;99.90;;;;;;5093166;28;20027;-70
2022/10/07 03:36:58;;;;;;;8.65;3.38;;;12.30;99.90;;;;;;5091643;28;20035;-68
2022/10/07 03:39:24;;;;;;;8.38;3.50;;;12.30;99.90;;;;;;5090377;28;20153;-69
2022/10/07 03:41:50;;;;;;;6.50;3.45;;;12.30;99.90;;;;;;5092049;28;20028;-69
2022/10/07 03:44:18;;;;;;;7.88;3.58;;;12.30;99.90;;;;;;5092005;28;20042;-69
2022/10/07 03:46:47;;;;;;;9.40;3.42;;;12.30;99.90;;;;;;5090630;28;20024;-69
2022/10/07 03:49:13;;;;;;;8.63;3.30;;;12.30;99.90;;;;;;5090107;28;20135;-70
2022/10/07 03:51:39;;;;;;;11.20;3.75;;;12.30;99.90;;;;;;5086330;28;20032;-69
2022/10/07 03:54:05;;;;;;;7.15;3.33;;;12.30;99.90;;;;;;5090781;28;20027;-69
2022/10/07 03:56:31;;;;;;;6.97;3.15;;;12.30;99.90;;;;;;5092107;28;20039;-69
2022/10/07 03:58:56;;;;;;;9.95;4.20;;;12.30;99.90;;;;;;5090487;28;20404;-70
2022/10/07 04:01:22;;;;;;;7.32;2.90;;;12.30;99.90;;;;;;5091987;28;20032;-72
2022/10/07 04:03:47;;;;;;;7.85;3.25;;;12.30;99.90;;;;;;5090921;28;20070;-72
2022/10/07 04:06:15;;;;;;;6.72;3.28;;;12.30;99.90;;;;;;5090434;28;20094;-74
2022/10/07 04:08:43;;;;;;;4.10;2.70;;;12.20;99.90;;;;;;5092339;28;20098;-69
2022/10/07 04:11:09;;;;;;;5.60;3.25;;;12.20;99.90;;;;;;5090610;28;20043;-70
2022/10/07 04:13:35;;;;;;;6.80;3.35;;;12.20;99.90;;;;;;5092150;28;20048;-70
2022/10/07 04:16:09;;;;;;;10.15;3.78;;;12.20;99.90;;;;;;5089864;28;20051;-68
2022/10/07 04:18:34;;;;;;;8.52;4.13;;;12.30;99.90;;;;;;5083247;28;20047;-69
2022/10/07 04:21:00;;;;;;;8.85;3.80;;;12.20;99.90;;;;;;5068575;28;20040;-70
2022/10/07 04:23:26;;;;;;;9.20;3.63;;;12.30;99.90;;;;;;5090081;28;20039;-69
2022/10/07 04:25:52;;;;;;;7.38;3.35;;;12.30;99.90;;;;;;5090067;28;20521;-67
2022/10/07 04:28:20;;;;;;;6.10;3.33;;;12.20;99.90;;;;;;5091161;28;20028;-68
2022/10/07 04:30:50;;;;;;;9.73;3.35;;;12.20;99.90;;;;;;5090642;28;20032;-69
2022/10/07 04:33:16;;;;;;;9.68;3.65;;;12.20;99.90;;;;;;5090399;28;20031;-68
2022/10/07 04:35:43;;;;;;;9.90;4.20;;;12.20;99.90;;;;;;5091451;28;20485;-70
2022/10/07 04:38:13;;;;;;;5.55;2.97;;;12.20;99.90;;;;;;5091042;28;20377;-69
2022/10/07 04:40:45;;;;;;;6.35;3.38;;;12.20;99.90;;;;;;5090854;28;20035;-69
2022/10/07 04:43:18;;;;;;;8.20;3.70;;;12.20;99.90;;;;;;5091001;28;20066;-69
2022/10/07 04:45:45;;;;;;;8.30;3.38;;;12.20;99.90;;;;;;5091482;28;20052;-69
2022/10/07 04:48:11;;;;;;;6.53;3.00;;;12.20;99.90;;;;;;5090303;28;20069;-68
2022/10/07 04:50:37;;;;;;;7.40;3.70;;;12.20;99.90;;;;;;5091180;28;20036;-69
2022/10/07 04:53:04;;;;;;;6.80;3.38;;;12.20;99.90;;;;;;5090786;28;20074;-69
2022/10/07 04:55:37;;;;;;;11.00;4.40;;;12.20;99.90;;;;;;5090570;28;20507;-69
2022/10/07 04:58:03;;;;;;;10.68;3.65;;;12.20;99.90;;;;;;5090636;28;20024;-70
2022/10/07 05:00:28;;;;;;;11.20;3.72;;;12.20;99.90;;;;;;5084637;28;20473;-68
2022/10/07 05:02:54;;;;;;;9.35;3.47;;;12.10;99.90;;;;;;5085333;28;20023;-67
2022/10/07 05:05:20;;;;;;;7.30;3.38;;;12.20;99.90;;;;;;5083006;28;20067;-69
2022/10/07 05:07:49;;;;;;;6.70;3.30;;;12.10;99.90;;;;;;5086475;28;20369;-68
2022/10/07 05:10:15;;;;;;;6.57;3.15;;;12.10;99.90;;;;;;5089643;28;20085;-68
2022/10/07 05:12:41;;;;;;;7.25;3.50;;;12.10;99.90;;;;;;5089943;28;20032;-68
2022/10/07 05:15:07;;;;;;;8.38;4.15;;;12.10;99.90;;;;;;5089885;28;20027;-69
2022/10/07 05:17:34;;;;;;;9.95;4.00;;;12.10;99.90;;;;;;5089139;28;20040;-68
2022/10/07 05:19:59;;;;;;;9.43;4.53;;;12.10;99.90;;;;;;5085002;28;20392;-68
2022/10/07 05:22:25;;;;;;;10.20;4.13;;;12.10;99.90;;;;;;5089735;28;20024;-75
2022/10/07 05:24:51;;;;;;;9.23;3.75;;;12.00;99.90;;;;;;5091742;28;20036;-70
2022/10/07 05:27:17;;;;;;;8.23;4.30;;;12.00;99.90;;;;;;5091114;28;20027;-72
2022/10/07 05:29:42;;;;;;;9.02;4.82;;;12.00;99.90;;;;;;5091735;28;20026;-73
2022/10/07 05:32:08;;;;;;;8.40;4.03;;;12.00;99.90;;;;;;5090697;28;20107;-74
2022/10/07 05:34:33;;;;;;;18.77;4.85;;;12.00;99.90;;;;;;5073254;28;20106;-72
2022/10/07 05:36:59;;;;;;;14.65;4.32;;;12.00;99.90;;;;;;5090750;28;20028;-78
2022/10/07 05:39:25;;;;;;;8.75;4.00;;;12.10;99.90;;;;;;5090677;28;20033;-81
2022/10/07 05:41:50;;;;;;;7.07;4.15;;;12.10;99.90;;;;;;5090630;28;20028;-82
2022/10/07 05:44:17;;;;;;;16.45;4.50;;;12.10;99.90;;;;;;5091251;28;20026;-79
2022/10/07 05:46:42;;;;;;;12.43;4.55;;;12.10;99.90;;;;;;5091100;28;20522;-77
2022/10/07 05:49:08;;;;;;;7.95;4.55;;;12.20;99.90;;;;;;5090095;28;20052;-80
2022/10/07 05:51:33;;;;;;;11.05;4.05;;;12.20;99.90;;;;;;5090959;28;20075;-79
2022/10/07 05:53:59;;;;;;;8.02;4.10;;;12.20;99.90;;;;;;5090239;28;20117;-73
2022/10/07 05:56:25;;;;;;;10.52;4.05;;;12.30;99.90;;;;;;5090620;28;20047;-76
2022/10/07 05:58:51;;;;;;;10.50;4.45;;;12.40;99.90;;;;;;5090984;28;20092;-72
2022/10/07 06:01:22;;;;;;;9.95;4.28;;;12.40;99.90;;;;;;5087491;28;20052;-70
2022/10/07 06:03:53;;;;;;;10.20;3.90;;;12.50;99.90;;;;;;5090740;28;20050;-69
2022/10/07 06:06:19;;;;;;;8.45;3.83;;;12.50;99.90;;;;;;5085169;28;20048;-69
2022/10/07 06:08:45;;;;;;;10.63;4.15;;;12.60;99.90;;;;;;5083739;28;20031;-71
2022/10/07 06:13:57;;;;;;;7.63;4.35;;;12.60;99.90;;;;;;5089831;28;20047;-70
2022/10/07 06:16:23;;;;;;;9.80;4.70;;;12.70;99.90;;;;;;5090637;28;20020;-70
2022/10/07 06:18:51;;;;;;;10.52;4.03;;;12.80;99.90;;;;;;5090903;28;20024;-70
2022/10/07 06:21:17;;;;;;;13.63;4.78;;;12.80;99.90;;;;;;5089803;28;20032;-70
2022/10/07 06:23:43;;;;;;;12.70;4.43;;;12.90;99.90;;;;;;5090781;28;20475;-71
2022/10/07 06:26:10;;;;;;;11.55;5.00;;;13.00;99.90;;;;;;5091967;28;20029;-71
2022/10/07 06:28:40;;;;;;;14.48;4.47;;;13.10;99.90;;;;;;5093889;28;20074;-71
2022/10/07 06:31:12;;;;;;;11.48;4.35;;;13.20;99.90;;;;;;5092962;28;20089;-71
2022/10/07 06:33:38;;;;;;;9.13;4.65;;;13.30;99.90;;;;;;5094051;28;20105;-71
2022/10/07 06:36:05;;;;;;;12.88;5.07;;;13.40;99.90;;;;;;5093239;28;20021;-71
2022/10/07 06:38:31;;;;;;;8.20;4.47;;;13.50;99.90;;;;;;5094239;28;20121;-71
2022/10/07 06:40:57;;;;;;;13.15;4.50;;;13.60;99.90;;;;;;5093060;28;20496;-68
2022/10/07 06:43:28;;;;;;;11.73;4.30;;;13.70;99.90;;;;;;5094238;28;20036;-70
2022/10/07 06:46:00;;;;;;;;;;;13.80;99.90;;;;;;5093825;28;20098;-72
2022/10/07 06:48:27;;;;;;;7.88;4.15;;;13.90;99.90;;;;;;5093705;28;19923;-71
2022/10/07 06:50:55;;;;;;;8.77;3.97;;;14.00;99.90;;;;;;5092431;28;20032;-71
2022/10/07 06:53:21;;;;;;;9.15;3.80;;;14.10;99.90;;;;;;5094021;28;20028;-71
2022/10/07 06:55:50;;;;;;;7.60;3.47;;;14.20;99.90;;;;;;5093327;28;20032;-71
2022/10/07 06:58:22;;;;;;;5.65;3.20;;;14.30;99.90;;;;;;5093001;28;20536;-71
2022/10/07 07:00:49;;;;;;;10.05;4.18;;;14.40;99.90;;;;;;5092656;28;20036;-71
2022/10/07 07:03:16;;;;;;;8.35;4.00;;;14.60;99.90;;;;;;5093395;28;20036;-70
2022/10/07 07:05:42;;;;;;;10.85;4.15;;;14.70;99.90;;;;;;5093010;28;20028;-71
2022/10/07 07:08:08;;;;;;;16.67;5.40;;;14.80;99.90;;;;;;5093165;28;20102;-71
2022/10/07 07:10:38;;;;;;;13.27;5.80;;;14.90;99.90;;;;;;5092998;28;20115;-71
2022/10/07 07:13:06;;;;;;;10.20;4.40;;;15.00;99.90;;;;;;5075149;28;20034;-70
2022/10/07 07:15:32;;;;;;;13.55;5.38;;;15.00;99.90;;;;;;5093270;28;20040;-71
2022/10/07 07:17:58;;;;;;;14.45;5.13;;;15.10;99.90;;;;;;5093239;28;20055;-70
2022/10/07 07:20:24;;;;;;;11.65;5.53;;;15.20;99.90;;;;;;5075223;28;20028;-70
2022/10/07 07:22:51;;;;;;;10.05;5.40;;;15.30;99.90;;;;;;5093306;28;20069;-70
2022/10/07 07:25:17;;;;;;;11.00;4.70;;;15.40;99.90;;;;;;5092993;28;20489;-71
2022/10/07 07:27:45;;;;;;;9.90;4.68;;;15.40;99.90;;;;;;5093881;28;20031;-69
2022/10/07 07:30:12;;;;;;;14.75;5.07;;;15.40;99.90;;;;;;5092121;28;20274;-70
2022/10/07 07:32:38;;;;;;;12.27;5.20;;;15.60;99.90;;;;;;5093178;28;20423;-70
2022/10/07 07:35:04;;;;;;;11.70;4.88;;;15.60;99.90;;;;;;5092246;28;20036;-70
2022/10/07 07:37:30;;;;;;;8.73;4.57;;;15.60;99.90;;;;;;5092229;28;20063;-71
2022/10/07 07:39:56;;;;;;;11.57;4.63;;;15.60;99.90;;;;;;5083782;28;20051;-70
2022/10/07 07:42:22;;;;;;;14.68;4.72;;;15.70;99.90;;;;;;5088322;28;20054;-71
2022/10/07 07:44:48;;;;;;;10.10;5.10;;;15.80;99.90;;;;;;5093044;28;20389;-70
2022/10/07 07:47:17;;;;;;;14.05;5.20;;;15.90;99.90;;;;;;5091411;28;20084;-70
2022/10/07 07:49:43;;;;;;;16.30;5.50;;;16.00;99.90;;;;;;5093354;28;20361;-70
2022/10/07 07:52:09;;;;;;;13.18;4.85;;;16.10;99.90;;;;;;5091954;28;20043;-70
2022/10/07 07:54:38;;;;;;;12.50;5.05;;;16.10;99.90;;;;;;5093161;28;20076;-71
2022/10/07 07:57:04;;;;;;;8.75;4.07;;;16.30;99.90;;;;;;5091625;28;20434;-70
2022/10/07 07:59:31;;;;;;;8.70;5.13;;;16.40;99.90;;;;;;5092954;28;20158;-70
2022/10/07 08:01:57;;;;;;;13.80;5.00;;;16.40;99.90;;;;;;5091800;28;20058;-69
2022/10/07 08:04:23;;;;;;;18.42;5.93;;;16.60;99.90;;;;;;5092377;28;20024;-69
2022/10/07 08:06:49;;;;;;;9.88;3.72;;;16.60;99.90;;;;;;5092373;28;20028;-70
2022/10/07 08:09:15;;;;;;;18.92;3.63;;;16.70;99.90;;;;;;5091944;28;20368;-70
2022/10/07 08:11:44;;;;;;;6.63;3.05;;;16.90;99.90;;;;;;5091906;28;20036;-69
2022/10/07 08:14:11;;;;;;;7.03;2.42;;;17.00;99.90;;;;;;5083152;28;20028;-68
2022/10/07 08:16:37;;;;;;;6.07;3.63;;;17.10;99.90;;;;;;5081139;28;20039;-69
2022/10/07 08:19:03;;;;;;;4.20;2.65;;;17.30;99.90;;;;;;5086835;28;20023;-72
2022/10/07 08:21:32;;;;;;;7.68;3.03;;;17.40;99.90;;;;;;5092110;28;20115;-71
2022/10/07 08:23:58;;;;;;;4.88;2.35;;;17.40;99.90;;;;;;5091517;28;20020;-70
2022/10/07 08:26:28;;;;;;;5.35;2.78;;;17.50;99.90;;;;;;5092055;28;20035;-71
2022/10/07 08:28:54;;;;;;;6.05;3.00;;;17.60;99.90;;;;;;5092207;28;20020;-71
2022/10/07 08:31:21;;;;;;;4.97;2.65;;;17.70;99.90;;;;;;5091794;28;20036;-70
2022/10/07 08:33:48;;;;;;;5.22;2.90;;;17.90;99.90;;;;;;5092075;28;20048;-72
2022/10/07 08:36:16;;;;;;;9.43;3.03;;;18.00;99.90;;;;;;5091114;28;20411;-71
2022/10/07 08:38:43;;;;;;;6.97;2.90;;;18.00;99.90;;;;;;5092093;28;20039;-71
2022/10/07 08:41:08;;;;;;;8.52;2.50;;;18.10;99.90;;;;;;5091068;28;20036;-71
2022/10/07 08:43:40;;;;;;;8.95;2.83;;;18.20;99.90;;;;;;5092113;28;20024;-71
2022/10/07 08:46:11;;;;;;;10.50;2.83;;;18.20;99.90;;;;;;5090544;28;20381;-71
2022/10/07 08:48:39;;;;;;;11.13;3.70;;;18.30;99.90;;;;;;5090976;28;20094;-71
2022/10/07 08:51:25;;;;;;;8.27;3.15;;;18.40;99.90;;;;;;5090469;28;20137;-70
2022/10/07 08:53:57;;;;;;;10.48;3.53;;;18.40;99.90;;;;;;5091984;28;20038;-71
2022/10/07 08:56:25;;;;;;;11.52;2.50;;;18.40;99.90;;;;;;5073173;28;20028;-70
2022/10/07 08:59:27;;;;;;;12.02;3.38;;;18.40;99.90;;;;;;5086480;28;20426;-70
2022/10/07 09:02:20;;;;;;;6.38;2.80;;;18.50;99.90;;;;;;4981864;28;20395;-68
2022/10/07 09:05:25;;;;;;;6.35;2.60;;;18.50;99.90;;;;;;5089583;28;20062;-70
2022/10/07 09:07:55;;;;;;;9.02;3.10;;;18.60;99.90;;;;;;5091696;28;20465;-71
2022/10/07 09:10:29;;;;;;;6.40;2.67;;;18.60;99.90;;;;;;5091617;28;20060;-71
2022/10/07 09:13:12;;;;;;;8.25;3.10;;;18.60;99.90;;;;;;5090954;28;20024;-69
2022/10/07 09:16:04;;;;;;;11.98;2.97;;;18.60;99.90;;;;;;5091331;28;20028;-70
2022/10/07 09:18:38;;;;;;;16.67;3.50;;;18.60;99.90;;;;;;5077852;28;20032;-70
2022/10/07 09:21:15;;;;;;;15.48;3.83;;;18.70;99.90;;;;;;5080617;28;20469;-71
2022/10/07 09:23:42;;;;;;;9.43;3.03;;;18.80;99.90;;;;;;5091983;28;20032;-71
2022/10/07 09:26:12;;;;;;;8.65;3.00;;;18.80;99.90;;;;;;5091145;28;20020;-71
2022/10/07 09:28:38;;;;;;;7.97;3.20;;;18.80;99.90;;;;;;5091845;28;20055;-72
2022/10/07 09:31:05;;;;;;;7.10;3.10;;;18.80;99.90;;;;;;5090097;28;20059;-70
2022/10/07 09:33:35;;;;;;;8.70;3.35;;;18.80;99.90;;;;;;5091687;28;20075;-70
2022/10/07 09:36:09;;;;;;;11.95;3.30;;;18.90;99.90;;;;;;5090699;28;20107;-71
2022/10/07 09:38:36;;;;;;;12.02;3.47;;;18.90;99.90;;;;;;5091504;28;20028;-69
2022/10/07 09:41:31;;;;;;;8.27;2.88;;;18.90;99.90;;;;;;5090544;28;20190;-69
2022/10/07 09:44:14;;;;;;;8.82;3.15;;;19.00;99.90;;;;;;5090863;28;20035;-69
2022/10/07 09:46:51;;;;;;;5.28;3.28;;;19.00;99.90;;;;;;5090872;28;20437;-70
2022/10/07 09:49:26;;;;;;;9.77;3.90;;;19.00;99.90;;;;;;5090648;28;20048;-72
2022/10/07 09:52:26;;;;;;;7.15;3.75;;;19.10;99.90;;;;;;5090287;28;20044;-68
2022/10/07 09:54:54;;;;;;;7.55;3.67;;;19.20;99.90;;;;;;5089388;28;20451;-70
2022/10/07 09:57:26;;;;;;;9.10;3.85;;;19.20;99.90;;;;;;5091475;28;20028;-73
2022/10/07 10:00:11;;;;;;;10.15;4.60;;;19.20;99.90;;;;;;5091803;28;20487;-69
2022/10/07 10:02:39;;;;;;;11.00;4.43;;;19.30;99.90;;;;;;5085515;28;20115;-72
2022/10/07 10:05:05;;;;;;;7.68;4.30;;;19.30;99.90;;;;;;5093508;28;20032;-73
2022/10/07 10:07:36;;;;;;;9.18;4.00;;;19.30;99.90;;;;;;5094653;28;20046;-72
2022/10/07 10:10:03;;;;;;;6.25;3.17;;;19.30;99.90;;;;;;5093521;28;20031;-72
2022/10/07 10:12:33;;;;;;;5.70;3.88;;;19.50;99.90;;;;;;5094001;28;20036;-73
2022/10/07 10:14:59;;;;;;;11.10;4.93;;;19.50;99.90;;;;;;5093139;28;20028;-71
2022/10/07 10:17:39;;;;;;;8.93;4.45;;;19.70;99.90;;;;;;5093146;28;20119;-71
2022/10/07 10:20:23;;;;;;;5.88;3.95;;;19.80;99.90;;;;;;5074623;28;20090;-72
2022/10/07 10:22:49;;;;;;;6.97;4.47;;;19.90;99.90;;;;;;5081946;28;20108;-71
2022/10/07 10:28:21;;;;;;;10.90;3.60;;;19.90;99.90;;;;;;5093279;28;20397;-72
2022/10/07 10:30:55;;;;;;;6.57;3.53;;;20.00;99.90;;;;;;5093868;28;20032;-73
2022/10/07 10:33:42;;;;;;;5.40;3.33;;;20.00;99.90;;;;;;5089497;28;20048;-73
2022/10/07 10:36:20;;;;;;;8.32;3.40;;;20.10;99.90;;;;;;5093485;28;20029;-72
2022/10/07 10:39:00;;;;;;;7.35;4.20;;;20.10;99.90;;;;;;5093435;28;20111;-72
2022/10/07 10:41:59;;;;;;;6.22;4.40;;;20.10;99.90;;;;;;5093519;28;20150;-72
2022/10/07 10:44:31;;;;;;;7.15;4.00;;;20.20;99.90;;;;;;5064462;28;20043;-72
2022/10/07 10:47:06;;;;;;;6.82;4.10;;;20.30;99.90;;;;;;5083988;28;20366;-71
2022/10/07 10:50:04;;;;;;;8.25;3.88;;;20.30;99.90;;;;;;5087070;28;20043;-72
2022/10/07 10:52:39;;;;;;;9.15;4.22;;;20.40;99.90;;;;;;5086973;28;20040;-71
2022/10/07 10:55:37;;;;;;;8.05;4.13;;;20.40;99.90;;;;;;5083979;28;20028;-74
2022/10/07 10:58:41;;;;;;;5.47;3.75;;;20.40;99.90;;;;;;5049469;28;20094;-71
2022/10/07 11:01:22;;;;;;;6.18;4.10;;;20.50;99.90;;;;;;5090486;28;20024;-72
2022/10/07 11:04:06;;;;;;;10.40;4.45;;;20.70;99.90;;;;;;5093329;28;20380;-71
2022/10/07 11:06:36;;;;;;;10.73;4.35;;;20.80;99.90;;;;;;5084311;28;20032;-73
2022/10/07 11:09:03;;;;;;;10.07;4.38;;;20.80;99.90;;;;;;5093048;28;20020;-72
2022/10/07 11:11:29;;;;;;;8.25;4.82;;;20.90;99.90;;;;;;5092397;28;20127;-73
2022/10/07 11:14:06;;;;;;;8.52;4.75;;;21.00;99.90;;;;;;5093009;28;20043;-73
2022/10/07 11:16:40;;;;;;;6.43;4.70;;;21.10;99.90;;;;;;5093302;28;20020;-73
2022/10/07 11:19:09;;;;;;;15.73;5.05;;;21.20;99.90;;;;;;5093203;28;20476;-73
2022/10/07 11:21:43;;;;;;;7.18;4.57;;;21.30;99.90;;;;;;5092625;28;20039;-72
2022/10/07 11:24:15;;;;;;;10.18;4.35;;;21.30;99.90;;;;;;5092749;28;20040;-73
2022/10/07 11:26:49;;;;;;;9.13;5.15;;;21.30;99.90;;;;;;5075175;28;20040;-73
2022/10/07 11:29:39;;;;;;;9.20;4.60;;;21.20;99.90;;;;;;5092769;28;20024;-73
2022/10/07 11:32:53;;;;;;;11.93;5.18;;;21.20;99.90;;;;;;5073807;28;20377;-72
2022/10/07 11:35:30;;;;;;;9.73;4.70;;;21.20;99.90;;;;;;5063547;28;20067;-74
2022/10/07 11:38:05;;;;;;;6.20;4.47;;;21.20;99.90;;;;;;5092967;28;20107;-74
2022/10/07 11:40:33;;;;;;;9.77;5.90;;;21.20;99.90;;;;;;5092906;28;20165;-72
2022/10/07 11:43:12;;;;;;;7.85;5.60;;;21.40;99.90;;;;;;5092707;28;20028;-73
2022/10/07 11:45:50;;;;;;;22.15;5.32;;;21.60;99.90;;;;;;5092943;28;20054;-73
2022/10/07 11:48:51;;;;;;;8.25;4.00;;;22.00;99.90;;;;;;5092485;28;20056;-73
2022/10/07 11:51:26;;;;;;;10.88;5.28;;;22.20;99.90;;;;;;5088220;28;20068;-72
2022/10/07 11:53:56;;;;;;;10.88;5.30;;;22.40;99.90;;;;;;5092968;28;20032;-85
2022/10/07 11:56:24;;;;;;;;;;;22.50;99.90;;;;;;5093206;28;20060;-71
2022/10/07 11:59:01;;;;;;;9.93;5.28;;;22.80;99.90;;;;;;5079068;28;20380;-71
2022/10/07 12:01:27;;;;;;;7.05;5.15;;;22.90;99.90;;;;;;5084833;28;20020;-70
2022/10/07 12:04:34;;;;;;;9.40;4.90;;;22.80;99.90;;;;;;5092932;28;20035;-72
2022/10/07 12:07:30;;;;;;;6.22;4.25;;;22.80;99.90;;;;;;5085724;28;20039;-71
2022/10/07 12:10:02;;;;;;;6.82;4.72;;;22.80;99.90;;;;;;5090940;28;20024;-70
2022/10/07 12:12:46;;;;;;;6.63;4.20;;;22.90;99.90;;;;;;5087701;28;20576;-70
2022/10/07 12:15:31;;;;;;;8.07;5.00;;;23.10;99.90;;;;;;5090471;28;20033;-70
2022/10/07 12:18:03;;;;;;;12.07;4.53;;;23.30;99.90;;;;;;5078425;28;20172;-71
2022/10/07 12:20:54;;;;;;;5.20;3.80;;;23.30;99.90;;;;;;5091292;28;20024;-70
2022/10/07 12:23:24;;;;;;;5.75;4.57;;;23.30;99.90;;;;;;5091706;28;20031;-70
2022/10/07 12:25:55;;;;;;;7.43;4.97;;;23.30;99.90;;;;;;5091457;28;20077;-72
2022/10/07 12:28:44;;;;;;;7.65;4.85;;;23.40;99.90;;;;;;5090996;28;20035;-71
2022/10/07 12:31:25;;;;;;;9.20;4.97;;;23.40;99.90;;;;;;5080482;28;20477;-72
2022/10/07 12:34:03;;;;;;;7.43;4.68;;;23.30;99.90;;;;;;5090669;28;20478;-72
2022/10/07 12:36:30;;;;;;;7.53;4.40;;;23.50;99.90;;;;;;5091011;28;20028;-73
2022/10/07 12:38:58;;;;;;;11.65;4.80;;;23.60;99.90;;;;;;5091182;28;20028;-74
2022/10/07 12:41:27;;;;;;;9.73;4.90;;;23.90;99.90;;;;;;5091087;28;20028;-75
2022/10/07 12:44:13;;;;;;;8.53;4.40;;;24.20;99.60;;;;;;5087058;28;20036;-75
2022/10/07 12:46:48;;;;;;;11.10;4.53;;;24.20;99.30;;;;;;5084331;28;20041;-83
2022/10/07 12:49:37;;;;;;;10.32;4.70;;;24.40;99.10;;;;;;5065795;28;20050;-77
2022/10/07 12:52:18;;;;;;;8.10;5.13;;;24.20;98.80;;;;;;5083872;28;20036;-79
2022/10/07 12:54:44;;;;;;;;;;;24.00;99.00;;;;;;5084800;28;20483;-76
2022/10/07 12:57:12;;;;;;;10.50;4.32;;;23.80;99.40;;;;;;5082974;28;19911;-75
2022/10/07 12:59:47;;;;;;;8.00;4.80;;;23.90;99.40;;;;;;5082053;28;20675;-78
2022/10/07 13:02:34;;;;;;;10.00;5.40;;;23.90;99.30;;;;;;5085079;28;20632;-76
2022/10/07 13:05:17;;;;;;;5.72;4.10;;;23.70;99.40;;;;;;5085592;28;20027;-82
2022/10/07 13:08:05;;;;;;;6.07;4.30;;;23.70;99.70;;;;;;5088231;28;20020;-82
2022/10/07 13:10:40;;;;;;;4.00;3.33;;;23.60;99.70;;;;;;5073651;28;20051;-79
2022/10/07 13:13:15;;;;;;;6.57;3.75;;;23.60;99.60;;;;;;5059684;28;20055;-77